Meteo Giornale » Osservazioni meteo Bosnia-Erzegovina » Tuzla

ore: 06:00 - Osservazioni Meteo Tuzla
Lat. 44° 33' N Lon. 18° 42' E Alt. 306 metri s.l.m.

coperto_neve Europe/Sarajevo

0 °C

Neve Debole Foschia

Temp. 24 Ore

0 °C

19 °C

Nord

3.7 Km/h

Dew point 0 °C

Umidità 100 %

Visibilità  2 Km

Il sole sorge alle ore 06:24

Il sole tramonta alle ore 17:31

Data e Ora Cielo e Fenomeni T °C DP °C Um. % Pres. hPa Vis. km Vento km/h
Oggi h: 06:00 coperto_neve Neve Debole Foschia 0 0 100 1006 2 N 3.7
Oggi h: 05:00 coperto_neve Neve Debole Foschia 0 0 100 1005 2 N 3.7
Oggi h: 04:00 coperto_neve Neve Debole Foschia 0 0 100 1004 3 N 1.8
Oggi h: 03:00 foschia Foschia 0 0 100 1004 3 N 1.8
Oggi h: 01:00 coperto_neve Neve Debole Foschia 0 0 100 1004 2 O/SO 7.4
Oggi h: 00:00 coperto_neve Neve Debole Foschia 0 0 100 1003 2 O 11.1
Ieri h: 23:00 coperto_neve Neve Foschia 0 0 100 1003 2 O/NO 7.4
Ieri h: 22:00 coperto_neve Neve Debole Foschia 0 0 100 1002 3 N 5.5
Ieri h: 21:00 coperto_neve Neve Foschia 0 0 100 1002 5 O/NO 9.3
Ieri h: 20:00 coperto_pioggia Pioggia Debole 2 0 86 1001 10 O 9.3
Ieri h: 19:00 molto_nuvoloso Molto Nuvoloso 4 1 80 1002 10 O/NO 16.7
Ieri h: 18:00 molto_nuvoloso Molto Nuvoloso 6 1 70 1000 10 N/NO 14.8
Ieri h: 17:00 molto_nuvoloso Molto Nuvoloso 9 2 61 997 10 N/NO 18.5
Ieri h: 16:30 nuvoloso Nuvoloso 15 4 47 996 10 SO 18.5
Ieri h: 16:00 nuvoloso Nuvoloso 16 3 41 996 10 SO 16.7
Ieri h: 15:30 nuvoloso Nuvoloso 16 3 41 996 10 SO 14.8
Ieri h: 15:00 nuvoloso Nuvoloso 17 3 39 996 10 SO 18.5
Ieri h: 14:30 nuvoloso Nuvoloso 17 3 39 996 10 O/SO 22.2
Ieri h: 14:00 nuvoloso Nuvoloso 17 3 39 996 10 O/SO 20.3
Ieri h: 13:30 nuvoloso Nuvoloso 19 4 37 996 10 O/SO 24
Ieri h: 13:00 nuvoloso Nuvoloso 18 3 36 997 10 O/SO 25.9
Ieri h: 12:30 molto_nuvoloso Molto Nuvoloso 17 2 36 997 10 O/SO 25.9
Ieri h: 12:00 nuvoloso Nuvoloso 18 2 34 997 10 O 25.9
Ieri h: 11:30 nuvoloso Nuvoloso 18 2 34 998 10 SO 20.3
Ieri h: 11:00 nuvoloso Nuvoloso 17 2 36 997 10 SO 27.8
Ieri h: 10:30 nuvoloso Nuvoloso 16 2 38 998 10 SO 16.7
Ieri h: 09:30 poco_nuvoloso Poco Nuvoloso 15 5 51 998 10 SO 9.3
Ieri h: 09:00 poco_nuvoloso Poco Nuvoloso 12 4 57 999 10 N 5.5
Ieri h: 08:30 poco_nuvoloso Poco Nuvoloso 10 4 66 999 10 N 3.7
Ieri h: 08:00 poco_nuvoloso Poco Nuvoloso 11 7 76 999 10 N 5.5
Ieri h: 07:30 nuvoloso Nuvoloso 4 1 80 999 10 N 3.7
Ieri h: 07:00 nuvoloso Nuvoloso 1 0 93 999 10 N 5.5